Metar z pełnej godziny Komunikat METAR ze strony awiacja.imgw.pl Metar G00 EPSY METAR EPSY 171300Z 23012KT CAVOK 27/12 Q1017=